sensor_id;sensor_type;location;lat;lon;timestamp;P1;durP1;ratioP1;P2;durP2;ratioP2
78925;SDS011;68321;51.276;7.208;2024-03-02T00:02:25;2.35;;;1.35;;
78925;SDS011;68321;51.276;7.208;2024-03-02T00:05:02;3.15;;;1.83;;
78925;SDS011;68321;51.276;7.208;2024-03-02T00:07:27;3.03;;;1.98;;
78925;SDS011;68321;51.276;7.208;2024-03-02T00:09:55;2.33;;;1.48;;
78925;SDS011;68321;51.276;7.208;2024-03-02T00:12:20;2.85;;;1.52;;
78925;SDS011;68321;51.276;7.208;2024-03-02T00:14:46;2.53;;;1.10;;
78925;SDS011;68321;51.276;7.208;2024-03-02T00:17:15;2.70;;;1.50;;
78925;SDS011;68321;51.276;7.208;2024-03-02T00:19:46;2.33;;;1.40;;
78925;SDS011;68321;51.276;7.208;2024-03-02T00:22:11;4.20;;;2.20;;
78925;SDS011;68321;51.276;7.208;2024-03-02T00:24:37;2.85;;;1.70;;
78925;SDS011;68321;51.276;7.208;2024-03-02T00:27:03;3.25;;;1.60;;
78925;SDS011;68321;51.276;7.208;2024-03-02T00:29:32;2.15;;;1.20;;
78925;SDS011;68321;51.276;7.208;2024-03-02T00:32:00;3.25;;;1.60;;
78925;SDS011;68321;51.276;7.208;2024-03-02T00:34:26;2.92;;;1.65;;
78925;SDS011;68321;51.276;7.208;2024-03-02T00:36:56;3.13;;;1.35;;
78925;SDS011;68321;51.276;7.208;2024-03-02T00:39:22;2.50;;;1.40;;
78925;SDS011;68321;51.276;7.208;2024-03-02T00:41:48;3.33;;;1.85;;
78925;SDS011;68321;51.276;7.208;2024-03-02T00:44:15;2.97;;;1.50;;
78925;SDS011;68321;51.276;7.208;2024-03-02T00:46:42;2.10;;;1.60;;
78925;SDS011;68321;51.276;7.208;2024-03-02T00:51:37;3.60;;;1.50;;
78925;SDS011;68321;51.276;7.208;2024-03-02T00:54:07;2.00;;;1.23;;
78925;SDS011;68321;51.276;7.208;2024-03-02T00:56:33;3.10;;;1.38;;
78925;SDS011;68321;51.276;7.208;2024-03-02T00:59:02;3.17;;;1.33;;
78925;SDS011;68321;51.276;7.208;2024-03-02T01:01:30;5.60;;;1.55;;
78925;SDS011;68321;51.276;7.208;2024-03-02T01:03:57;2.20;;;1.55;;
78925;SDS011;68321;51.276;7.208;2024-03-02T01:06:22;2.72;;;0.88;;
78925;SDS011;68321;51.276;7.208;2024-03-02T01:08:48;2.08;;;1.55;;
78925;SDS011;68321;51.276;7.208;2024-03-02T01:11:16;3.33;;;1.63;;
78925;SDS011;68321;51.276;7.208;2024-03-02T01:13:41;1.70;;;1.30;;
78925;SDS011;68321;51.276;7.208;2024-03-02T01:16:07;1.77;;;1.20;;
78925;SDS011;68321;51.276;7.208;2024-03-02T01:18:32;3.58;;;1.20;;
78925;SDS011;68321;51.276;7.208;2024-03-02T01:20:58;4.78;;;1.42;;
78925;SDS011;68321;51.276;7.208;2024-03-02T01:23:25;5.28;;;1.83;;
78925;SDS011;68321;51.276;7.208;2024-03-02T01:25:51;1.52;;;1.13;;
78925;SDS011;68321;51.276;7.208;2024-03-02T01:28:19;1.35;;;0.85;;
78925;SDS011;68321;51.276;7.208;2024-03-02T01:30:45;2.67;;;1.52;;
78925;SDS011;68321;51.276;7.208;2024-03-02T01:33:12;1.92;;;0.98;;
78925;SDS011;68321;51.276;7.208;2024-03-02T01:35:37;2.47;;;1.10;;
78925;SDS011;68321;51.276;7.208;2024-03-02T01:38:03;3.13;;;1.10;;
78925;SDS011;68321;51.276;7.208;2024-03-02T01:40:31;5.57;;;1.20;;
78925;SDS011;68321;51.276;7.208;2024-03-02T01:43:00;1.98;;;1.20;;
78925;SDS011;68321;51.276;7.208;2024-03-02T01:45:25;2.25;;;1.17;;
78925;SDS011;68321;51.276;7.208;2024-03-02T01:47:51;2.53;;;1.70;;
78925;SDS011;68321;51.276;7.208;2024-03-02T01:50:24;2.25;;;0.85;;
78925;SDS011;68321;51.276;7.208;2024-03-02T01:52:52;3.00;;;1.10;;
78925;SDS011;68321;51.276;7.208;2024-03-02T01:55:17;3.42;;;1.25;;
78925;SDS011;68321;51.276;7.208;2024-03-02T01:57:43;3.60;;;1.25;;
78925;SDS011;68321;51.276;7.208;2024-03-02T02:00:10;1.83;;;1.02;;
78925;SDS011;68321;51.276;7.208;2024-03-02T02:02:36;1.88;;;1.00;;
78925;SDS011;68321;51.276;7.208;2024-03-02T02:05:01;3.47;;;1.25;;
78925;SDS011;68321;51.276;7.208;2024-03-02T02:07:27;1.80;;;1.00;;
78925;SDS011;68321;51.276;7.208;2024-03-02T02:09:53;2.58;;;1.00;;
78925;SDS011;68321;51.276;7.208;2024-03-02T02:12:18;1.83;;;0.80;;
78925;SDS011;68321;51.276;7.208;2024-03-02T02:14:47;2.95;;;1.20;;
78925;SDS011;68321;51.276;7.208;2024-03-02T02:17:14;2.33;;;1.30;;
78925;SDS011;68321;51.276;7.208;2024-03-02T02:19:40;2.65;;;1.05;;
78925;SDS011;68321;51.276;7.208;2024-03-02T02:22:06;3.03;;;1.10;;
78925;SDS011;68321;51.276;7.208;2024-03-02T02:24:31;2.85;;;1.42;;
78925;SDS011;68321;51.276;7.208;2024-03-02T02:26:57;2.08;;;1.40;;
78925;SDS011;68321;51.276;7.208;2024-03-02T02:29:22;2.08;;;1.30;;
78925;SDS011;68321;51.276;7.208;2024-03-02T02:31:48;2.80;;;1.27;;
78925;SDS011;68321;51.276;7.208;2024-03-02T02:34:14;1.77;;;1.13;;
78925;SDS011;68321;51.276;7.208;2024-03-02T02:36:40;2.22;;;1.30;;
78925;SDS011;68321;51.276;7.208;2024-03-02T02:39:08;2.30;;;1.50;;
78925;SDS011;68321;51.276;7.208;2024-03-02T02:44:01;2.92;;;1.42;;
78925;SDS011;68321;51.276;7.208;2024-03-02T02:46:26;2.85;;;1.17;;
78925;SDS011;68321;51.276;7.208;2024-03-02T02:48:52;2.13;;;1.20;;
78925;SDS011;68321;51.276;7.208;2024-03-02T02:51:18;2.08;;;1.25;;
78925;SDS011;68321;51.276;7.208;2024-03-02T02:53:43;4.03;;;1.30;;
78925;SDS011;68321;51.276;7.208;2024-03-02T02:56:11;2.25;;;1.15;;
78925;SDS011;68321;51.276;7.208;2024-03-02T02:58:36;1.70;;;1.02;;
78925;SDS011;68321;51.276;7.208;2024-03-02T03:01:02;2.65;;;1.10;;
78925;SDS011;68321;51.276;7.208;2024-03-02T03:03:27;2.03;;;1.10;;
78925;SDS011;68321;51.276;7.208;2024-03-02T03:05:53;1.48;;;0.88;;
78925;SDS011;68321;51.276;7.208;2024-03-02T03:08:18;2.22;;;1.25;;
78925;SDS011;68321;51.276;7.208;2024-03-02T03:10:44;2.13;;;1.08;;
78925;SDS011;68321;51.276;7.208;2024-03-02T03:13:09;2.90;;;1.50;;
78925;SDS011;68321;51.276;7.208;2024-03-02T03:15:35;2.15;;;1.20;;
78925;SDS011;68321;51.276;7.208;2024-03-02T03:18:03;3.25;;;1.15;;
78925;SDS011;68321;51.276;7.208;2024-03-02T03:20:29;4.13;;;1.33;;
78925;SDS011;68321;51.276;7.208;2024-03-02T03:22:55;3.08;;;1.17;;
78925;SDS011;68321;51.276;7.208;2024-03-02T03:25:21;2.88;;;1.30;;
78925;SDS011;68321;51.276;7.208;2024-03-02T03:27:47;2.33;;;1.35;;
78925;SDS011;68321;51.276;7.208;2024-03-02T03:30:12;2.28;;;0.93;;
78925;SDS011;68321;51.276;7.208;2024-03-02T03:32:38;1.77;;;1.00;;
78925;SDS011;68321;51.276;7.208;2024-03-02T03:35:04;3.30;;;1.25;;
78925;SDS011;68321;51.276;7.208;2024-03-02T03:37:30;2.83;;;1.20;;
78925;SDS011;68321;51.276;7.208;2024-03-02T03:39:59;1.83;;;1.05;;
78925;SDS011;68321;51.276;7.208;2024-03-02T03:42:26;2.80;;;1.10;;
78925;SDS011;68321;51.276;7.208;2024-03-02T03:44:52;2.35;;;1.10;;
78925;SDS011;68321;51.276;7.208;2024-03-02T03:47:17;3.35;;;1.60;;
78925;SDS011;68321;51.276;7.208;2024-03-02T03:49:42;0.98;;;0.88;;
78925;SDS011;68321;51.276;7.208;2024-03-02T03:52:08;2.10;;;1.15;;
78925;SDS011;68321;51.276;7.208;2024-03-02T03:54:33;5.27;;;1.43;;
78925;SDS011;68321;51.276;7.208;2024-03-02T03:56:58;2.40;;;1.20;;
78925;SDS011;68321;51.276;7.208;2024-03-02T03:59:24;1.23;;;0.85;;
78925;SDS011;68321;51.276;7.208;2024-03-02T04:01:49;3.97;;;1.33;;
78925;SDS011;68321;51.276;7.208;2024-03-02T04:04:15;2.60;;;1.20;;
78925;SDS011;68321;51.276;7.208;2024-03-02T04:06:40;4.10;;;1.92;;
78925;SDS011;68321;51.276;7.208;2024-03-02T04:09:06;2.88;;;1.63;;
78925;SDS011;68321;51.276;7.208;2024-03-02T04:11:33;1.85;;;1.00;;
78925;SDS011;68321;51.276;7.208;2024-03-02T04:14:01;2.33;;;1.70;;
78925;SDS011;68321;51.276;7.208;2024-03-02T04:16:27;2.40;;;1.02;;
78925;SDS011;68321;51.276;7.208;2024-03-02T04:18:53;2.05;;;1.08;;
78925;SDS011;68321;51.276;7.208;2024-03-02T04:21:19;2.40;;;1.40;;
78925;SDS011;68321;51.276;7.208;2024-03-02T04:23:45;2.55;;;2.15;;
78925;SDS011;68321;51.276;7.208;2024-03-02T04:26:10;2.13;;;1.33;;
78925;SDS011;68321;51.276;7.208;2024-03-02T04:28:36;2.65;;;1.23;;
78925;SDS011;68321;51.276;7.208;2024-03-02T04:31:01;2.67;;;1.15;;
78925;SDS011;68321;51.276;7.208;2024-03-02T04:33:27;1.58;;;1.13;;
78925;SDS011;68321;51.276;7.208;2024-03-02T04:35:53;3.17;;;1.30;;
78925;SDS011;68321;51.276;7.208;2024-03-02T04:38:18;3.47;;;1.38;;
78925;SDS011;68321;51.276;7.208;2024-03-02T04:40:44;3.22;;;1.40;;
78925;SDS011;68321;51.276;7.208;2024-03-02T04:43:09;2.08;;;1.25;;
78925;SDS011;68321;51.276;7.208;2024-03-02T04:45:37;2.97;;;1.42;;
78925;SDS011;68321;51.276;7.208;2024-03-02T04:48:03;2.53;;;1.48;;
78925;SDS011;68321;51.276;7.208;2024-03-02T04:50:29;1.85;;;1.13;;
78925;SDS011;68321;51.276;7.208;2024-03-02T04:52:54;5.15;;;1.50;;
78925;SDS011;68321;51.276;7.208;2024-03-02T04:55:20;2.00;;;1.00;;
78925;SDS011;68321;51.276;7.208;2024-03-02T04:58:15;2.85;;;1.20;;
78925;SDS011;68321;51.276;7.208;2024-03-02T05:00:42;1.93;;;1.60;;
78925;SDS011;68321;51.276;7.208;2024-03-02T05:03:08;4.20;;;1.08;;
78925;SDS011;68321;51.276;7.208;2024-03-02T05:05:34;3.33;;;1.60;;
78925;SDS011;68321;51.276;7.208;2024-03-02T05:08:00;2.80;;;1.60;;
78925;SDS011;68321;51.276;7.208;2024-03-02T05:10:25;3.47;;;1.50;;
78925;SDS011;68321;51.276;7.208;2024-03-02T05:12:51;3.17;;;1.55;;
78925;SDS011;68321;51.276;7.208;2024-03-02T05:15:24;4.03;;;1.70;;
78925;SDS011;68321;51.276;7.208;2024-03-02T05:17:50;3.92;;;1.50;;
78925;SDS011;68321;51.276;7.208;2024-03-02T05:20:16;3.97;;;2.03;;
78925;SDS011;68321;51.276;7.208;2024-03-02T05:22:42;2.55;;;1.60;;
78925;SDS011;68321;51.276;7.208;2024-03-02T05:25:07;7.18;;;2.03;;
78925;SDS011;68321;51.276;7.208;2024-03-02T05:27:34;3.42;;;1.92;;
78925;SDS011;68321;51.276;7.208;2024-03-02T05:30:00;4.35;;;1.95;;
78925;SDS011;68321;51.276;7.208;2024-03-02T05:32:25;3.58;;;2.30;;
78925;SDS011;68321;51.276;7.208;2024-03-02T05:34:52;3.13;;;1.58;;
78925;SDS011;68321;51.276;7.208;2024-03-02T05:37:17;3.03;;;2.03;;
78925;SDS011;68321;51.276;7.208;2024-03-02T05:39:43;3.25;;;2.00;;
78925;SDS011;68321;51.276;7.208;2024-03-02T05:42:09;4.32;;;2.08;;
78925;SDS011;68321;51.276;7.208;2024-03-02T05:44:35;3.15;;;1.60;;
78925;SDS011;68321;51.276;7.208;2024-03-02T05:47:03;5.95;;;2.17;;
78925;SDS011;68321;51.276;7.208;2024-03-02T05:49:29;2.83;;;1.63;;
78925;SDS011;68321;51.276;7.208;2024-03-02T05:51:54;3.80;;;2.08;;
78925;SDS011;68321;51.276;7.208;2024-03-02T05:54:20;3.35;;;2.05;;
78925;SDS011;68321;51.276;7.208;2024-03-02T05:56:46;4.20;;;2.08;;
78925;SDS011;68321;51.276;7.208;2024-03-02T05:59:11;3.53;;;2.47;;
78925;SDS011;68321;51.276;7.208;2024-03-02T06:01:47;3.85;;;2.13;;
78925;SDS011;68321;51.276;7.208;2024-03-02T06:04:13;4.22;;;2.15;;
78925;SDS011;68321;51.276;7.208;2024-03-02T06:06:40;3.38;;;2.20;;
78925;SDS011;68321;51.276;7.208;2024-03-02T06:09:07;1.50;;;1.23;;
78925;SDS011;68321;51.276;7.208;2024-03-02T06:11:35;3.33;;;2.13;;
78925;SDS011;68321;51.276;7.208;2024-03-02T06:14:05;5.43;;;2.35;;
78925;SDS011;68321;51.276;7.208;2024-03-02T06:16:32;4.65;;;1.92;;
78925;SDS011;68321;51.276;7.208;2024-03-02T06:18:58;4.15;;;2.08;;
78925;SDS011;68321;51.276;7.208;2024-03-02T06:21:24;4.68;;;1.92;;
78925;SDS011;68321;51.276;7.208;2024-03-02T06:23:50;3.83;;;2.03;;
78925;SDS011;68321;51.276;7.208;2024-03-02T06:26:15;4.82;;;2.58;;
78925;SDS011;68321;51.276;7.208;2024-03-02T06:28:41;5.65;;;2.45;;
78925;SDS011;68321;51.276;7.208;2024-03-02T06:31:06;3.75;;;2.00;;
78925;SDS011;68321;51.276;7.208;2024-03-02T06:33:32;4.60;;;2.70;;
78925;SDS011;68321;51.276;7.208;2024-03-02T06:35:59;6.28;;;2.25;;
78925;SDS011;68321;51.276;7.208;2024-03-02T06:38:25;7.38;;;3.45;;
78925;SDS011;68321;51.276;7.208;2024-03-02T06:40:51;4.32;;;2.80;;
78925;SDS011;68321;51.276;7.208;2024-03-02T06:43:17;5.18;;;2.80;;
78925;SDS011;68321;51.276;7.208;2024-03-02T06:45:43;4.43;;;2.65;;
78925;SDS011;68321;51.276;7.208;2024-03-02T06:48:08;8.60;;;2.90;;
78925;SDS011;68321;51.276;7.208;2024-03-02T06:50:33;6.68;;;2.67;;
78925;SDS011;68321;51.276;7.208;2024-03-02T06:52:59;5.38;;;2.45;;
78925;SDS011;68321;51.276;7.208;2024-03-02T06:55:26;4.30;;;2.03;;
78925;SDS011;68321;51.276;7.208;2024-03-02T06:57:51;4.50;;;2.08;;
78925;SDS011;68321;51.276;7.208;2024-03-02T07:00:17;4.75;;;2.28;;
78925;SDS011;68321;51.276;7.208;2024-03-02T07:02:44;3.53;;;2.53;;
78925;SDS011;68321;51.276;7.208;2024-03-02T07:05:10;6.65;;;3.35;;
78925;SDS011;68321;51.276;7.208;2024-03-02T07:07:36;5.28;;;2.70;;
78925;SDS011;68321;51.276;7.208;2024-03-02T07:10:03;5.65;;;2.13;;
78925;SDS011;68321;51.276;7.208;2024-03-02T07:12:33;5.55;;;2.60;;
78925;SDS011;68321;51.276;7.208;2024-03-02T07:14:59;5.55;;;2.40;;
78925;SDS011;68321;51.276;7.208;2024-03-02T07:17:27;4.18;;;2.38;;
78925;SDS011;68321;51.276;7.208;2024-03-02T07:19:56;4.15;;;2.22;;
78925;SDS011;68321;51.276;7.208;2024-03-02T07:22:24;4.63;;;2.25;;
78925;SDS011;68321;51.276;7.208;2024-03-02T07:24:50;3.20;;;2.00;;
78925;SDS011;68321;51.276;7.208;2024-03-02T07:27:16;3.97;;;2.35;;
78925;SDS011;68321;51.276;7.208;2024-03-02T07:29:44;3.92;;;2.80;;
78925;SDS011;68321;51.276;7.208;2024-03-02T07:32:15;5.07;;;2.38;;
78925;SDS011;68321;51.276;7.208;2024-03-02T07:34:40;4.00;;;2.00;;
78925;SDS011;68321;51.276;7.208;2024-03-02T07:37:07;4.00;;;2.88;;
78925;SDS011;68321;51.276;7.208;2024-03-02T07:39:32;3.38;;;1.80;;
78925;SDS011;68321;51.276;7.208;2024-03-02T07:41:58;5.07;;;2.20;;
78925;SDS011;68321;51.276;7.208;2024-03-02T07:44:24;4.05;;;2.35;;
78925;SDS011;68321;51.276;7.208;2024-03-02T07:46:49;6.18;;;2.67;;
78925;SDS011;68321;51.276;7.208;2024-03-02T07:49:16;6.72;;;2.90;;
78925;SDS011;68321;51.276;7.208;2024-03-02T07:51:42;3.22;;;2.22;;
78925;SDS011;68321;51.276;7.208;2024-03-02T07:54:08;5.70;;;2.28;;
78925;SDS011;68321;51.276;7.208;2024-03-02T07:56:34;5.85;;;3.83;;
78925;SDS011;68321;51.276;7.208;2024-03-02T07:59:03;3.65;;;2.05;;
78925;SDS011;68321;51.276;7.208;2024-03-02T08:01:29;3.67;;;2.03;;
78925;SDS011;68321;51.276;7.208;2024-03-02T08:03:57;2.75;;;1.67;;
78925;SDS011;68321;51.276;7.208;2024-03-02T08:06:27;6.50;;;2.42;;
78925;SDS011;68321;51.276;7.208;2024-03-02T08:09:00;2.60;;;1.90;;
78925;SDS011;68321;51.276;7.208;2024-03-02T08:11:28;5.60;;;1.75;;
78925;SDS011;68321;51.276;7.208;2024-03-02T08:13:54;3.17;;;1.83;;
78925;SDS011;68321;51.276;7.208;2024-03-02T08:16:24;3.67;;;1.70;;
78925;SDS011;68321;51.276;7.208;2024-03-02T08:21:23;3.13;;;1.83;;
78925;SDS011;68321;51.276;7.208;2024-03-02T08:23:48;4.55;;;2.13;;
78925;SDS011;68321;51.276;7.208;2024-03-02T08:26:15;3.13;;;1.55;;
78925;SDS011;68321;51.276;7.208;2024-03-02T08:28:41;4.13;;;2.00;;
78925;SDS011;68321;51.276;7.208;2024-03-02T08:31:07;3.55;;;1.70;;
78925;SDS011;68321;51.276;7.208;2024-03-02T08:33:32;4.05;;;1.73;;
78925;SDS011;68321;51.276;7.208;2024-03-02T08:35:58;3.63;;;1.95;;
78925;SDS011;68321;51.276;7.208;2024-03-02T08:38:26;3.83;;;2.05;;
78925;SDS011;68321;51.276;7.208;2024-03-02T08:40:51;4.05;;;2.28;;
78925;SDS011;68321;51.276;7.208;2024-03-02T08:43:17;3.97;;;1.98;;
78925;SDS011;68321;51.276;7.208;2024-03-02T08:45:42;2.67;;;1.88;;
78925;SDS011;68321;51.276;7.208;2024-03-02T08:48:08;3.47;;;1.83;;
78925;SDS011;68321;51.276;7.208;2024-03-02T08:50:34;4.30;;;2.08;;
78925;SDS011;68321;51.276;7.208;2024-03-02T08:53:00;3.83;;;1.85;;
78925;SDS011;68321;51.276;7.208;2024-03-02T08:55:26;4.65;;;1.60;;
78925;SDS011;68321;51.276;7.208;2024-03-02T08:57:51;3.90;;;1.70;;
78925;SDS011;68321;51.276;7.208;2024-03-02T09:00:17;3.60;;;1.95;;
78925;SDS011;68321;51.276;7.208;2024-03-02T09:02:43;3.70;;;1.98;;
78925;SDS011;68321;51.276;7.208;2024-03-02T09:05:10;3.05;;;2.00;;
78925;SDS011;68321;51.276;7.208;2024-03-02T09:07:36;5.03;;;1.77;;
78925;SDS011;68321;51.276;7.208;2024-03-02T09:10:04;6.97;;;2.47;;
78925;SDS011;68321;51.276;7.208;2024-03-02T09:15:04;2.95;;;1.60;;
78925;SDS011;68321;51.276;7.208;2024-03-02T09:17:32;3.97;;;1.98;;
78925;SDS011;68321;51.276;7.208;2024-03-02T09:19:58;3.90;;;1.48;;
78925;SDS011;68321;51.276;7.208;2024-03-02T09:22:23;1.98;;;1.13;;
78925;SDS011;68321;51.276;7.208;2024-03-02T09:24:49;4.90;;;1.60;;
78925;SDS011;68321;51.276;7.208;2024-03-02T09:27:16;2.83;;;1.42;;
78925;SDS011;68321;51.276;7.208;2024-03-02T09:29:42;2.45;;;1.58;;
78925;SDS011;68321;51.276;7.208;2024-03-02T09:32:12;2.33;;;1.23;;
78925;SDS011;68321;51.276;7.208;2024-03-02T09:34:38;1.95;;;1.05;;
78925;SDS011;68321;51.276;7.208;2024-03-02T09:37:04;2.58;;;1.60;;
78925;SDS011;68321;51.276;7.208;2024-03-02T09:39:29;2.92;;;1.50;;
78925;SDS011;68321;51.276;7.208;2024-03-02T09:41:55;2.72;;;1.38;;
78925;SDS011;68321;51.276;7.208;2024-03-02T09:44:20;5.07;;;2.33;;
78925;SDS011;68321;51.276;7.208;2024-03-02T09:46:50;3.42;;;1.70;;
78925;SDS011;68321;51.276;7.208;2024-03-02T09:49:17;2.03;;;1.13;;
78925;SDS011;68321;51.276;7.208;2024-03-02T09:51:49;3.03;;;1.42;;
78925;SDS011;68321;51.276;7.208;2024-03-02T09:54:15;2.63;;;1.30;;
78925;SDS011;68321;51.276;7.208;2024-03-02T09:56:41;3.28;;;1.60;;
78925;SDS011;68321;51.276;7.208;2024-03-02T09:59:13;3.58;;;2.17;;
78925;SDS011;68321;51.276;7.208;2024-03-02T10:01:55;2.88;;;1.42;;
78925;SDS011;68321;51.276;7.208;2024-03-02T10:04:33;2.28;;;1.13;;
78925;SDS011;68321;51.276;7.208;2024-03-02T10:07:11;2.05;;;1.52;;
78925;SDS011;68321;51.276;7.208;2024-03-02T10:09:37;2.45;;;1.83;;
78925;SDS011;68321;51.276;7.208;2024-03-02T10:12:07;4.82;;;1.70;;
78925;SDS011;68321;51.276;7.208;2024-03-02T10:14:34;3.65;;;1.38;;
78925;SDS011;68321;51.276;7.208;2024-03-02T10:17:04;3.42;;;1.50;;
78925;SDS011;68321;51.276;7.208;2024-03-02T10:22:00;2.70;;;1.27;;
78925;SDS011;68321;51.276;7.208;2024-03-02T10:24:39;2.42;;;1.23;;
78925;SDS011;68321;51.276;7.208;2024-03-02T10:27:09;4.80;;;2.42;;
78925;SDS011;68321;51.276;7.208;2024-03-02T10:29:47;1.50;;;1.10;;
78925;SDS011;68321;51.276;7.208;2024-03-02T10:34:41;2.45;;;1.10;;
78925;SDS011;68321;51.276;7.208;2024-03-02T10:37:10;2.75;;;1.50;;
78925;SDS011;68321;51.276;7.208;2024-03-02T10:39:37;3.53;;;1.35;;
78925;SDS011;68321;51.276;7.208;2024-03-02T10:42:07;1.85;;;1.13;;
78925;SDS011;68321;51.276;7.208;2024-03-02T10:44:34;3.08;;;1.70;;
78925;SDS011;68321;51.276;7.208;2024-03-02T10:47:01;2.08;;;1.23;;
78925;SDS011;68321;51.276;7.208;2024-03-02T10:51:54;2.38;;;1.10;;
78925;SDS011;68321;51.276;7.208;2024-03-02T10:54:20;3.10;;;1.65;;
78925;SDS011;68321;51.276;7.208;2024-03-02T10:56:51;3.75;;;1.38;;
78925;SDS011;68321;51.276;7.208;2024-03-02T10:59:28;1.65;;;1.10;;
78925;SDS011;68321;51.276;7.208;2024-03-02T11:02:01;3.20;;;1.40;;
78925;SDS011;68321;51.276;7.208;2024-03-02T11:04:28;2.38;;;1.30;;
78925;SDS011;68321;51.276;7.208;2024-03-02T11:09:38;4.70;;;1.45;;
78925;SDS011;68321;51.276;7.208;2024-03-02T11:14:52;2.78;;;1.10;;
78925;SDS011;68321;51.276;7.208;2024-03-02T11:17:17;2.20;;;0.95;;
78925;SDS011;68321;51.276;7.208;2024-03-02T11:19:43;2.75;;;1.20;;
78925;SDS011;68321;51.276;7.208;2024-03-02T11:22:10;2.60;;;1.45;;
78925;SDS011;68321;51.276;7.208;2024-03-02T11:24:36;1.80;;;1.10;;
78925;SDS011;68321;51.276;7.208;2024-03-02T11:27:02;1.33;;;0.90;;
78925;SDS011;68321;51.276;7.208;2024-03-02T11:32:08;1.77;;;1.00;;
78925;SDS011;68321;51.276;7.208;2024-03-02T11:34:42;2.60;;;1.00;;
78925;SDS011;68321;51.276;7.208;2024-03-02T11:37:10;4.50;;;1.20;;
78925;SDS011;68321;51.276;7.208;2024-03-02T11:39:36;8.07;;;1.50;;
78925;SDS011;68321;51.276;7.208;2024-03-02T11:42:04;2.50;;;1.02;;
78925;SDS011;68321;51.276;7.208;2024-03-02T11:44:32;1.63;;;1.10;;
78925;SDS011;68321;51.276;7.208;2024-03-02T11:47:01;3.45;;;0.98;;
78925;SDS011;68321;51.276;7.208;2024-03-02T11:49:41;2.22;;;0.90;;
78925;SDS011;68321;51.276;7.208;2024-03-02T11:52:11;2.28;;;1.00;;
78925;SDS011;68321;51.276;7.208;2024-03-02T11:54:38;2.45;;;1.27;;
78925;SDS011;68321;51.276;7.208;2024-03-02T11:57:05;2.58;;;1.10;;
78925;SDS011;68321;51.276;7.208;2024-03-02T11:59:34;2.75;;;0.90;;
78925;SDS011;68321;51.276;7.208;2024-03-02T12:02:00;1.45;;;0.70;;
78925;SDS011;68321;51.276;7.208;2024-03-02T12:04:25;1.45;;;0.80;;
78925;SDS011;68321;51.276;7.208;2024-03-02T12:07:00;1.63;;;0.85;;
78925;SDS011;68321;51.276;7.208;2024-03-02T12:09:27;1.48;;;0.82;;
78925;SDS011;68321;51.276;7.208;2024-03-02T12:12:05;2.70;;;0.85;;
78925;SDS011;68321;51.276;7.208;2024-03-02T12:14:33;1.35;;;0.80;;
78925;SDS011;68321;51.276;7.208;2024-03-02T12:17:01;1.90;;;0.60;;
78925;SDS011;68321;51.276;7.208;2024-03-02T12:19:26;1.63;;;0.77;;
78925;SDS011;68321;51.276;7.208;2024-03-02T12:21:55;1.42;;;0.73;;
78925;SDS011;68321;51.276;7.208;2024-03-02T12:24:22;1.38;;;0.80;;
78925;SDS011;68321;51.276;7.208;2024-03-02T12:26:49;2.22;;;0.90;;
78925;SDS011;68321;51.276;7.208;2024-03-02T12:29:15;1.75;;;1.05;;
78925;SDS011;68321;51.276;7.208;2024-03-02T12:31:42;1.60;;;1.00;;
78925;SDS011;68321;51.276;7.208;2024-03-02T12:34:12;1.52;;;0.95;;
78925;SDS011;68321;51.276;7.208;2024-03-02T12:36:38;3.13;;;0.93;;
78925;SDS011;68321;51.276;7.208;2024-03-02T12:39:04;1.88;;;1.15;;
78925;SDS011;68321;51.276;7.208;2024-03-02T12:41:30;1.92;;;1.10;;
78925;SDS011;68321;51.276;7.208;2024-03-02T12:43:57;1.20;;;0.77;;
78925;SDS011;68321;51.276;7.208;2024-03-02T12:46:22;3.05;;;1.00;;
78925;SDS011;68321;51.276;7.208;2024-03-02T12:48:48;1.90;;;1.00;;
78925;SDS011;68321;51.276;7.208;2024-03-02T12:51:13;1.17;;;0.80;;
78925;SDS011;68321;51.276;7.208;2024-03-02T12:53:39;2.05;;;0.70;;
78925;SDS011;68321;51.276;7.208;2024-03-02T12:56:07;2.55;;;1.00;;
78925;SDS011;68321;51.276;7.208;2024-03-02T12:58:38;1.70;;;0.93;;
78925;SDS011;68321;51.276;7.208;2024-03-02T13:01:08;2.58;;;0.90;;
78925;SDS011;68321;51.276;7.208;2024-03-02T13:06:03;1.30;;;0.77;;
78925;SDS011;68321;51.276;7.208;2024-03-02T13:08:30;1.73;;;0.65;;
78925;SDS011;68321;51.276;7.208;2024-03-02T13:10:55;2.20;;;0.95;;
78925;SDS011;68321;51.276;7.208;2024-03-02T13:13:21;1.70;;;1.20;;
78925;SDS011;68321;51.276;7.208;2024-03-02T13:15:48;1.48;;;1.30;;
78925;SDS011;68321;51.276;7.208;2024-03-02T13:18:13;3.05;;;1.10;;
78925;SDS011;68321;51.276;7.208;2024-03-02T13:20:39;1.50;;;0.85;;
78925;SDS011;68321;51.276;7.208;2024-03-02T13:23:05;1.45;;;0.93;;
78925;SDS011;68321;51.276;7.208;2024-03-02T13:25:31;0.93;;;0.65;;
78925;SDS011;68321;51.276;7.208;2024-03-02T13:27:57;1.20;;;1.00;;
78925;SDS011;68321;51.276;7.208;2024-03-02T13:30:23;2.55;;;0.77;;
78925;SDS011;68321;51.276;7.208;2024-03-02T13:32:48;2.13;;;1.10;;
78925;SDS011;68321;51.276;7.208;2024-03-02T13:35:14;1.45;;;0.82;;
78925;SDS011;68321;51.276;7.208;2024-03-02T13:37:39;2.10;;;0.73;;
78925;SDS011;68321;51.276;7.208;2024-03-02T13:40:05;0.85;;;0.65;;
78925;SDS011;68321;51.276;7.208;2024-03-02T13:42:32;1.50;;;1.02;;
78925;SDS011;68321;51.276;7.208;2024-03-02T13:44:57;1.30;;;0.82;;
78925;SDS011;68321;51.276;7.208;2024-03-02T13:47:23;1.05;;;0.70;;
78925;SDS011;68321;51.276;7.208;2024-03-02T13:49:53;1.58;;;0.70;;
78925;SDS011;68321;51.276;7.208;2024-03-02T13:52:18;2.08;;;0.75;;
78925;SDS011;68321;51.276;7.208;2024-03-02T13:54:45;2.88;;;1.02;;
78925;SDS011;68321;51.276;7.208;2024-03-02T13:57:12;2.72;;;0.95;;
78925;SDS011;68321;51.276;7.208;2024-03-02T13:59:39;2.22;;;1.00;;
78925;SDS011;68321;51.276;7.208;2024-03-02T14:02:07;3.00;;;1.23;;
78925;SDS011;68321;51.276;7.208;2024-03-02T14:04:34;1.98;;;1.15;;
78925;SDS011;68321;51.276;7.208;2024-03-02T14:06:59;2.05;;;1.30;;
78925;SDS011;68321;51.276;7.208;2024-03-02T14:09:25;1.45;;;0.70;;
78925;SDS011;68321;51.276;7.208;2024-03-02T14:11:52;2.38;;;1.10;;
78925;SDS011;68321;51.276;7.208;2024-03-02T14:14:19;1.40;;;0.90;;
78925;SDS011;68321;51.276;7.208;2024-03-02T14:16:45;1.23;;;0.80;;
78925;SDS011;68321;51.276;7.208;2024-03-02T14:19:12;2.92;;;1.40;;
78925;SDS011;68321;51.276;7.208;2024-03-02T14:21:38;2.40;;;1.15;;
78925;SDS011;68321;51.276;7.208;2024-03-02T14:24:05;1.45;;;0.80;;
78925;SDS011;68321;51.276;7.208;2024-03-02T14:26:36;1.75;;;1.00;;
78925;SDS011;68321;51.276;7.208;2024-03-02T14:29:03;1.65;;;0.90;;
78925;SDS011;68321;51.276;7.208;2024-03-02T14:31:29;1.75;;;0.90;;
78925;SDS011;68321;51.276;7.208;2024-03-02T14:33:56;3.03;;;1.13;;
78925;SDS011;68321;51.276;7.208;2024-03-02T14:36:22;1.83;;;1.05;;
78925;SDS011;68321;51.276;7.208;2024-03-02T14:38:48;2.80;;;1.20;;
78925;SDS011;68321;51.276;7.208;2024-03-02T14:41:13;2.28;;;1.30;;
78925;SDS011;68321;51.276;7.208;2024-03-02T14:43:39;1.50;;;1.10;;
78925;SDS011;68321;51.276;7.208;2024-03-02T14:46:05;3.65;;;1.60;;
78925;SDS011;68321;51.276;7.208;2024-03-02T14:48:35;2.85;;;1.40;;
78925;SDS011;68321;51.276;7.208;2024-03-02T14:51:01;2.15;;;1.42;;
78925;SDS011;68321;51.276;7.208;2024-03-02T14:53:27;3.38;;;1.67;;
78925;SDS011;68321;51.276;7.208;2024-03-02T14:55:53;3.05;;;2.13;;
78925;SDS011;68321;51.276;7.208;2024-03-02T14:58:19;2.50;;;1.50;;
78925;SDS011;68321;51.276;7.208;2024-03-02T15:00:44;1.90;;;1.23;;
78925;SDS011;68321;51.276;7.208;2024-03-02T15:03:09;2.30;;;1.48;;
78925;SDS011;68321;51.276;7.208;2024-03-02T15:05:36;2.80;;;1.35;;
78925;SDS011;68321;51.276;7.208;2024-03-02T15:08:05;2.22;;;1.23;;
78925;SDS011;68321;51.276;7.208;2024-03-02T15:10:31;3.22;;;1.85;;
78925;SDS011;68321;51.276;7.208;2024-03-02T15:12:57;3.72;;;1.35;;
78925;SDS011;68321;51.276;7.208;2024-03-02T15:15:24;2.97;;;1.52;;